createdAt,value
2018-08-24T00:02:53.399Z,100469.70
2018-08-24T00:05:24.118Z,100471.08
2018-08-24T00:07:54.640Z,100473.00
2018-08-24T00:10:25.434Z,100466.58
2018-08-24T00:12:55.461Z,100461.56
2018-08-24T00:15:25.701Z,100455.93
2018-08-24T00:17:55.765Z,100442.53
2018-08-24T00:20:25.958Z,100442.45
2018-08-24T00:22:56.564Z,100444.37
2018-08-24T00:25:27.285Z,100441.88
2018-08-24T00:27:57.985Z,100444.46
2018-08-24T00:30:28.373Z,100439.53
2018-08-24T00:32:58.657Z,100435.23
2018-08-24T00:35:29.964Z,100440.92
2018-08-24T00:38:00.526Z,100432.81
2018-08-24T00:40:31.382Z,100437.40
2018-08-24T00:43:01.687Z,100440.87
2018-08-24T00:45:35.141Z,100441.38
2018-08-24T00:48:05.415Z,100440.34
2018-08-24T00:50:36.759Z,100437.45
2018-08-24T00:53:07.023Z,100439.61
2018-08-24T00:55:39.570Z,100435.95
2018-08-24T00:58:09.796Z,100433.89
2018-08-24T01:00:45.932Z,100437.30
2018-08-24T01:03:16.023Z,100434.54
2018-08-24T01:05:49.224Z,100440.82
2018-08-24T01:08:19.527Z,100446.09
2018-08-24T01:10:53.163Z,100457.96
2018-08-24T01:13:25.401Z,100463.45
2018-08-24T01:16:01.586Z,100464.81
2018-08-24T01:18:50.681Z,100462.08
2018-08-24T01:21:22.006Z,100456.09
2018-08-24T01:23:54.593Z,100453.63
2018-08-24T01:26:28.522Z,100448.39
2018-08-24T01:29:01.819Z,100458.47
2018-08-24T01:31:33.031Z,100454.64
2018-08-24T01:36:46.071Z,100450.97
2018-08-24T01:39:16.757Z,100456.40
2018-08-24T01:41:47.240Z,100460.86
2018-08-24T01:44:19.695Z,100464.70
2018-08-24T01:46:49.712Z,100464.46
2018-08-24T01:49:22.332Z,100455.20
2018-08-24T01:51:52.521Z,100454.97
2018-08-24T01:54:22.636Z,100461.16
2018-08-24T01:56:53.618Z,100458.17
2018-08-24T01:59:23.902Z,100452.91
2018-08-24T02:01:54.222Z,100442.29
2018-08-24T02:04:24.649Z,100443.06
2018-08-24T02:06:55.489Z,100438.59
2018-08-24T02:09:26.127Z,100436.98
2018-08-24T02:11:56.541Z,100441.66
2018-08-24T02:14:32.006Z,100447.61
2018-08-24T02:17:02.709Z,100439.64
2018-08-24T02:19:37.855Z,100440.27
2018-08-24T02:22:13.393Z,100440.47
2018-08-24T02:24:43.989Z,100439.80
2018-08-24T02:27:14.969Z,100435.31
2018-08-24T02:29:44.990Z,100436.30
2018-08-24T02:32:17.664Z,100433.11
2018-08-24T02:34:47.678Z,100436.33
2018-08-24T02:37:23.491Z,100435.58
2018-08-24T02:39:55.333Z,100432.52
2018-08-24T02:42:29.844Z,100433.37
2018-08-24T02:45:08.307Z,100436.09
2018-08-24T02:47:47.555Z,100432.88
2018-08-24T02:50:30.949Z,100435.94
2018-08-24T02:53:02.469Z,100436.53
2018-08-24T02:55:34.252Z,100424.84
2018-08-24T02:58:06.457Z,100425.22
2018-08-24T03:00:38.674Z,100431.16
2018-08-24T03:03:09.322Z,100423.50
2018-08-24T03:05:40.831Z,100416.95
2018-08-24T03:08:14.741Z,100404.77
2018-08-24T03:10:46.077Z,100400.56
2018-08-24T03:13:20.793Z,100401.55
2018-08-24T03:15:50.964Z,100405.85
2018-08-24T03:18:23.549Z,100420.77
2018-08-24T03:20:56.413Z,100417.33
2018-08-24T03:23:26.438Z,100427.09
2018-08-24T03:25:59.277Z,100436.94
2018-08-24T03:28:29.485Z,100436.34
2018-08-24T03:31:02.169Z,100416.47
2018-08-24T03:33:34.009Z,100424.25
2018-08-24T03:36:04.943Z,100418.45
2018-08-24T03:38:37.455Z,100433.50
2018-08-24T03:41:10.795Z,100434.38
2018-08-24T03:43:43.257Z,100432.77
2018-08-24T03:46:15.447Z,100428.20
2018-08-24T03:48:45.607Z,100428.32
2018-08-24T03:51:19.262Z,100435.73
2018-08-24T03:53:49.440Z,100432.64
2018-08-24T03:56:23.729Z,100436.47
2018-08-24T03:58:54.344Z,100437.10
2018-08-24T04:01:26.869Z,100432.89
2018-08-24T04:03:57.608Z,100440.29
2018-08-24T04:06:29.363Z,100444.36
2018-08-24T04:09:02.410Z,100450.37
2018-08-24T04:11:35.028Z,100446.31
2018-08-24T04:14:06.978Z,100451.36
2018-08-24T04:16:50.600Z,100460.23
2018-08-24T04:19:27.292Z,100446.20
2018-08-24T04:22:00.045Z,100444.10
2018-08-24T04:24:30.825Z,100443.73
2018-08-24T04:27:03.874Z,100446.05
2018-08-24T04:29:34.809Z,100444.84
2018-08-24T04:32:06.281Z,100448.66
2018-08-24T04:34:38.081Z,100449.41
2018-08-24T04:37:08.273Z,100456.55
2018-08-24T04:39:38.461Z,100459.02
2018-08-24T04:42:11.132Z,100455.34
2018-08-24T04:44:43.637Z,100450.54
2018-08-24T04:47:15.880Z,100459.14
2018-08-24T04:49:49.785Z,100462.86
2018-08-24T04:52:23.626Z,100460.37
2018-08-24T04:55:02.116Z,100464.69
2018-08-24T04:57:45.439Z,100467.90
2018-08-24T05:00:19.039Z,100470.59
2018-08-24T05:02:53.670Z,100477.23
2018-08-24T05:05:29.003Z,100471.94
2018-08-24T05:07:59.723Z,100486.27
2018-08-24T05:10:30.998Z,100485.52
2018-08-24T05:13:01.635Z,100487.11
2018-08-24T05:15:35.967Z,100479.11
2018-08-24T05:18:06.259Z,100493.01
2018-08-24T05:20:37.187Z,100488.72
2018-08-24T05:23:12.340Z,100486.48
2018-08-24T05:25:43.277Z,100490.30
2018-08-24T05:28:22.715Z,100483.05
2018-08-24T05:30:54.975Z,100484.25
2018-08-24T05:33:33.095Z,100482.07
2018-08-24T05:36:04.436Z,100486.12
2018-08-24T05:38:35.014Z,100480.94
2018-08-24T05:41:11.581Z,100479.70
2018-08-24T05:43:48.807Z,100487.22
2018-08-24T05:46:21.601Z,100482.31
2018-08-24T05:48:53.640Z,100480.11
2018-08-24T05:51:25.061Z,100479.35
2018-08-24T05:53:59.181Z,100467.41
2018-08-24T05:56:32.976Z,100473.42
2018-08-24T05:59:07.892Z,100473.45
2018-08-24T06:01:40.035Z,100478.61
2018-08-24T06:04:10.264Z,100477.00
2018-08-24T06:06:40.682Z,100472.92
2018-08-24T06:09:16.643Z,100472.69
2018-08-24T06:11:49.348Z,100486.60
2018-08-24T06:14:23.186Z,100483.05
2018-08-24T06:17:02.196Z,100481.42
2018-08-24T06:19:35.156Z,100489.47
2018-08-24T06:22:12.522Z,100484.77
2018-08-24T06:24:44.514Z,100489.81
2018-08-24T06:27:17.280Z,100490.55
2018-08-24T06:29:48.270Z,100493.76
2018-08-24T06:32:18.939Z,100490.54
2018-08-24T06:34:49.278Z,100494.97
2018-08-24T06:37:33.964Z,100486.98
2018-08-24T06:42:59.456Z,100498.79
2018-08-24T06:45:30.026Z,100510.26
2018-08-24T06:48:00.391Z,100502.64
2018-08-24T06:50:33.956Z,100508.77
2018-08-24T06:53:06.780Z,100510.97
2018-08-24T06:55:38.934Z,100509.97
2018-08-24T06:58:10.425Z,100513.44
2018-08-24T07:00:50.208Z,100515.66
2018-08-24T07:03:23.514Z,100516.17
2018-08-24T07:05:54.438Z,100515.06
2018-08-24T07:08:30.976Z,100517.55
2018-08-24T07:11:03.847Z,100511.86
2018-08-24T07:13:38.778Z,100512.77
2018-08-24T07:16:12.095Z,100508.30
2018-08-24T07:18:43.564Z,100505.70
2018-08-24T07:21:16.063Z,100496.58
2018-08-24T07:23:48.200Z,100492.66
2018-08-24T07:26:22.627Z,100491.66
2018-08-24T07:28:55.784Z,100482.42
2018-08-24T07:31:28.248Z,100482.17
2018-08-24T07:34:01.138Z,100490.42
2018-08-24T07:36:33.534Z,100504.38
2018-08-24T07:39:06.163Z,100510.14
2018-08-24T07:41:38.622Z,100512.36
2018-08-24T07:44:13.749Z,100518.16
2018-08-24T07:46:48.508Z,100518.30
2018-08-24T07:49:20.515Z,100536.66
2018-08-24T07:51:56.562Z,100538.98
2018-08-24T07:54:28.240Z,100546.98
2018-08-24T07:56:58.849Z,100539.86
2018-08-24T08:01:55.874Z,100539.62
2018-08-24T08:04:27.302Z,100546.87
2018-08-24T08:06:58.836Z,100551.80
2018-08-24T08:09:30.222Z,100542.94
2018-08-24T08:12:04.218Z,100530.60
2018-08-24T08:14:36.626Z,100542.64
2018-08-24T08:17:07.469Z,100546.51
2018-08-24T08:19:37.741Z,100544.95
2018-08-24T08:22:12.691Z,100536.70
2018-08-24T08:24:44.609Z,100532.94
2018-08-24T08:27:15.473Z,100539.61
2018-08-24T08:29:55.958Z,100548.17
2018-08-24T08:32:27.312Z,100549.63
2018-08-24T08:34:59.988Z,100555.42
2018-08-24T08:37:30.476Z,100559.22
2018-08-24T08:40:03.883Z,100547.40
2018-08-24T08:42:37.286Z,100552.93
2018-08-24T08:45:10.172Z,100549.59
2018-08-24T08:47:42.977Z,100550.69
2018-08-24T08:50:13.678Z,100550.90
2018-08-24T08:52:44.555Z,100554.34
2018-08-24T08:55:17.107Z,100550.05
2018-08-24T08:57:49.901Z,100544.84
2018-08-24T09:00:24.290Z,100545.27
2018-08-24T09:03:24.437Z,100543.45
2018-08-24T09:05:59.464Z,100541.31
2018-08-24T09:08:38.782Z,100540.69
2018-08-24T09:11:10.462Z,100537.86
2018-08-24T09:16:27.133Z,100537.23
2018-08-24T09:21:14.565Z,100541.80
2018-08-24T09:23:59.039Z,100538.11
2018-08-24T09:40:06.726Z,100545.16
2018-08-24T09:42:42.016Z,100536.66
2018-08-24T09:45:14.709Z,100543.91
2018-08-24T09:47:51.102Z,100538.02
2018-08-24T09:50:27.066Z,100536.41
2018-08-24T09:53:06.663Z,100543.67
2018-08-24T09:55:45.190Z,100546.91
2018-08-24T09:58:22.382Z,100544.97
2018-08-24T10:01:05.556Z,100549.98
2018-08-24T10:03:43.503Z,100538.01
2018-08-24T10:06:21.411Z,100539.06
2018-08-24T10:08:52.835Z,100555.84
2018-08-24T10:11:25.520Z,100557.55
2018-08-24T10:14:01.230Z,100548.87
2018-08-24T10:16:35.564Z,100544.84
2018-08-24T10:22:00.915Z,100550.38
2018-08-24T10:24:33.668Z,100563.23
2018-08-24T10:27:05.736Z,100546.53
2018-08-24T10:29:37.795Z,100541.84
2018-08-24T10:32:07.865Z,100540.58
2018-08-24T10:34:38.562Z,100612.39
2018-08-24T10:37:09.277Z,100603.44
2018-08-24T10:39:39.096Z,100631.39
2018-08-24T10:42:09.359Z,100641.06
2018-08-24T10:44:39.085Z,100630.98
2018-08-24T10:47:09.470Z,100639.78
2018-08-24T10:49:39.250Z,100641.25
2018-08-24T10:52:10.376Z,100642.05
2018-08-24T10:54:42.875Z,100643.52
2018-08-24T10:57:15.607Z,100646.44
2018-08-24T10:59:49.545Z,100654.80
2018-08-24T11:02:21.060Z,100653.50
2018-08-24T11:04:51.509Z,100650.24
2018-08-24T11:07:21.687Z,100661.73
2018-08-24T11:09:52.293Z,100672.88
2018-08-24T11:12:23.598Z,100662.56
2018-08-24T11:16:02.789Z,100657.73
2018-08-24T11:21:14.922Z,100643.23
2018-08-24T11:23:46.103Z,100650.05
2018-08-24T11:26:17.205Z,100641.50
2018-08-24T11:28:49.423Z,100640.92
2018-08-24T11:31:20.311Z,100633.39
2018-08-24T11:33:56.401Z,100626.25
2018-08-24T11:36:27.136Z,100613.95
2018-08-24T11:38:57.337Z,100623.70
2018-08-24T11:41:29.994Z,100625.77
2018-08-24T11:44:00.684Z,100629.67
2018-08-24T11:46:31.073Z,100631.91
2018-08-24T11:49:03.324Z,100636.03
2018-08-24T11:54:17.064Z,100629.64
2018-08-24T11:56:47.808Z,100622.59
2018-08-24T11:59:20.209Z,100624.48
2018-08-24T12:01:51.106Z,100624.09
2018-08-24T12:04:22.001Z,100622.83
2018-08-24T12:06:54.621Z,100615.06
2018-08-24T12:09:25.790Z,100611.62
2018-08-24T12:11:57.615Z,100617.64
2018-08-24T12:14:28.065Z,100621.09
2018-08-24T12:16:59.477Z,100610.70
2018-08-24T12:19:30.172Z,100604.16
2018-08-24T12:22:04.853Z,100612.83
2018-08-24T12:24:37.258Z,100616.51
2018-08-24T12:27:10.132Z,100609.64
2018-08-24T12:29:41.390Z,100615.94
2018-08-24T12:32:12.281Z,100628.76
2018-08-24T12:34:50.571Z,100624.56
2018-08-24T12:59:25.507Z,100604.11
2018-08-24T13:02:04.475Z,100610.72
2018-08-24T13:04:38.815Z,100608.83
2018-08-24T13:07:27.390Z,100608.11
2018-08-24T13:09:58.901Z,100605.59
2018-08-24T13:12:32.026Z,100604.51
2018-08-24T13:15:08.867Z,100615.03
2018-08-24T13:20:36.937Z,100627.55
2018-08-24T13:23:10.969Z,100628.95
2018-08-24T13:25:47.066Z,100629.19
2018-08-24T13:28:20.131Z,100632.12
2018-08-24T13:30:53.746Z,100631.89
2018-08-24T13:33:25.717Z,100626.19
2018-08-24T13:35:56.220Z,100632.32
2018-08-24T13:38:29.907Z,100616.36
2018-08-24T13:41:00.720Z,100613.61
2018-08-24T13:43:35.672Z,100627.48
2018-08-24T13:46:06.758Z,100629.59
2018-08-24T13:48:37.084Z,100632.33
2018-08-24T13:51:10.620Z,100634.90
2018-08-24T13:53:44.267Z,100628.73
2018-08-24T13:56:16.565Z,100630.05
2018-08-24T13:58:53.699Z,100623.00
2018-08-24T14:01:25.431Z,100616.39
2018-08-24T14:03:57.147Z,100618.48
2018-08-24T14:06:29.614Z,100615.00
2018-08-24T14:09:00.041Z,100605.80
2018-08-24T14:11:31.152Z,100601.38
2018-08-24T14:14:05.586Z,100607.95
2018-08-24T14:16:35.872Z,100593.23
2018-08-24T14:19:06.260Z,100596.36
2018-08-24T14:21:36.883Z,100600.59
2018-08-24T14:24:14.668Z,100603.55
2018-08-24T14:26:50.255Z,100605.46
2018-08-24T14:29:21.566Z,100602.20
2018-08-24T14:32:14.865Z,100607.53
2018-08-24T14:34:46.340Z,100616.20
2018-08-24T14:37:16.510Z,100611.84
2018-08-24T14:39:46.495Z,100609.78
2018-08-24T14:42:17.419Z,100620.52
2018-08-24T14:44:49.334Z,100627.95
2018-08-24T14:47:20.478Z,100623.81
2018-08-24T14:49:50.940Z,100626.14
2018-08-24T14:52:50.960Z,100627.61
2018-08-24T14:58:10.596Z,100633.28
2018-08-24T15:00:40.866Z,100638.34
2018-08-24T15:03:12.212Z,100638.11
2018-08-24T15:05:42.457Z,100637.75
2018-08-24T15:08:12.511Z,100635.53
2018-08-24T15:10:43.474Z,100629.84
2018-08-24T15:13:13.882Z,100648.72
2018-08-24T15:15:44.460Z,100636.27
2018-08-24T15:18:15.952Z,100637.12
2018-08-24T15:20:46.070Z,100631.09
2018-08-24T15:23:17.287Z,100636.15
2018-08-24T15:25:47.852Z,100635.14
2018-08-24T15:28:18.103Z,100629.98
2018-08-24T15:30:48.606Z,100635.51
2018-08-24T15:33:18.524Z,100625.39
2018-08-24T15:35:48.590Z,100632.42
2018-08-24T15:38:18.792Z,100626.14
2018-08-24T15:40:57.938Z,100629.23
2018-08-24T15:43:35.046Z,100634.53
2018-08-24T15:46:08.193Z,100629.70
2018-08-24T15:48:38.572Z,100631.17
2018-08-24T15:51:09.308Z,100624.23
2018-08-24T15:53:39.852Z,100621.28
2018-08-24T15:56:10.284Z,100621.80
2018-08-24T15:58:40.560Z,100625.29
2018-08-24T16:01:11.327Z,100638.73
2018-08-24T16:03:43.883Z,100634.91
2018-08-24T16:06:18.914Z,100642.69
2018-08-24T16:08:52.649Z,100638.50
2018-08-24T16:11:23.152Z,100642.07
2018-08-24T16:13:55.071Z,100654.28
2018-08-24T16:16:40.018Z,100653.65
2018-08-24T16:21:57.629Z,100648.12
2018-08-24T16:24:39.526Z,100653.67
2018-08-24T16:27:16.900Z,100648.98
2018-08-24T16:29:56.167Z,100646.62
2018-08-24T16:32:29.446Z,100657.84
2018-08-24T16:35:01.793Z,100645.90
2018-08-24T16:37:33.501Z,100646.53
2018-08-24T16:40:11.571Z,100654.28
2018-08-24T16:42:45.544Z,100666.48
2018-08-24T16:45:20.883Z,100656.50
2018-08-24T16:47:53.509Z,100650.31
2018-08-24T16:50:25.362Z,100653.53
2018-08-24T16:52:59.167Z,100643.78
2018-08-24T16:55:29.897Z,100650.69
2018-08-24T16:58:10.132Z,100646.87
2018-08-24T17:00:42.982Z,100652.68
2018-08-24T17:03:30.377Z,100649.18
2018-08-24T17:06:10.035Z,100642.48
2018-08-24T17:08:49.012Z,100648.88
2018-08-24T17:11:19.926Z,100654.73
2018-08-24T17:14:02.016Z,100645.91
2018-08-24T17:16:45.488Z,100652.34
2018-08-24T17:22:20.393Z,100660.48
2018-08-24T17:25:06.960Z,100654.92
2018-08-24T17:27:41.031Z,100657.70
2018-08-24T17:30:13.125Z,100656.74
2018-08-24T17:32:43.946Z,100665.27
2018-08-24T17:35:15.528Z,100664.10
2018-08-24T17:37:47.317Z,100670.42
2018-08-24T17:40:18.826Z,100677.58
2018-08-24T17:42:50.347Z,100671.56
2018-08-24T17:45:24.185Z,100674.23
2018-08-24T17:48:01.504Z,100670.23
2018-08-24T17:50:38.586Z,100672.60
2018-08-24T17:53:13.333Z,100671.19
2018-08-24T17:55:47.500Z,100666.59
2018-08-24T17:58:22.940Z,100670.72
2018-08-24T18:00:54.768Z,100676.26
2018-08-24T18:03:27.827Z,100673.42
2018-08-24T18:06:03.926Z,100681.16
2018-08-24T18:08:36.684Z,100685.88
2018-08-24T18:11:14.099Z,100694.22
2018-08-24T18:13:47.552Z,100695.31
2018-08-24T18:16:18.944Z,100688.52
2018-08-24T18:18:50.597Z,100707.74
2018-08-24T18:21:22.047Z,100739.83
2018-08-24T18:23:57.139Z,100785.69
2018-08-24T18:26:28.901Z,100772.98
2018-08-24T18:29:07.969Z,100777.33
2018-08-24T18:31:39.072Z,100770.62
2018-08-24T18:34:09.850Z,100753.60
2018-08-24T18:36:40.878Z,100742.63
2018-08-24T18:39:13.753Z,100742.13
2018-08-24T18:41:44.141Z,100742.17
2018-08-24T18:44:15.477Z,100733.35
2018-08-24T18:46:46.565Z,100738.57
2018-08-24T18:49:19.357Z,100741.83
2018-08-24T18:51:49.903Z,100739.89
2018-08-24T18:54:23.792Z,100735.25
2018-08-24T18:56:54.594Z,100734.89
2018-08-24T18:59:27.167Z,100743.63
2018-08-24T19:01:58.762Z,100740.68
2018-08-24T19:04:31.631Z,100753.66
2018-08-24T19:07:03.398Z,100757.72
2018-08-24T19:09:56.073Z,100762.14
2018-08-24T19:12:33.747Z,100762.24
2018-08-24T19:15:09.607Z,100766.28
2018-08-24T19:17:47.245Z,100761.67
2018-08-24T19:20:40.088Z,100760.98
2018-08-24T19:29:18.771Z,100753.30
2018-08-24T19:31:49.651Z,100757.01
2018-08-24T19:34:22.879Z,100757.42
2018-08-24T19:36:58.289Z,100762.02
2018-08-24T19:39:29.592Z,100760.22
2018-08-24T19:42:06.212Z,100766.66
2018-08-24T19:44:39.843Z,100766.64
2018-08-24T19:47:14.710Z,100775.03
2018-08-24T19:49:47.234Z,100776.25
2018-08-24T19:52:19.546Z,100785.08
2018-08-24T19:54:51.807Z,100787.13
2018-08-24T19:57:27.140Z,100782.72
2018-08-24T19:59:57.399Z,100785.81
2018-08-24T20:02:28.588Z,100780.98
2018-08-24T20:04:59.357Z,100779.44
2018-08-24T20:07:36.416Z,100777.89
2018-08-24T20:10:09.873Z,100778.74
2018-08-24T20:12:42.128Z,100776.05
2018-08-24T20:15:19.547Z,100780.13
2018-08-24T20:17:52.970Z,100768.09
2018-08-24T20:20:24.429Z,100767.80
2018-08-24T20:22:57.424Z,100758.86
2018-08-24T20:25:28.957Z,100751.11
2018-08-24T20:28:01.365Z,100737.73
2018-08-24T20:30:39.768Z,100739.61
2018-08-24T20:33:12.976Z,100735.24
2018-08-24T20:35:59.501Z,100729.76
2018-08-24T20:38:34.623Z,100739.77
2018-08-24T20:43:40.331Z,100742.37
2018-08-24T20:46:11.779Z,100738.06
2018-08-24T20:48:42.471Z,100737.41
2018-08-24T20:51:16.838Z,100736.51
2018-08-24T20:53:47.969Z,100748.38
2018-08-24T20:56:19.670Z,100749.30
2018-08-24T20:58:50.902Z,100759.15
2018-08-24T21:01:22.352Z,100762.59
2018-08-24T21:03:54.869Z,100760.11
2018-08-24T21:06:26.353Z,100770.88
2018-08-24T21:08:58.108Z,100762.48
2018-08-24T21:11:28.246Z,100765.69
2018-08-24T21:13:58.504Z,100759.22
2018-08-24T21:16:30.190Z,100749.63
2018-08-24T21:19:02.023Z,100755.98
2018-08-24T21:21:32.350Z,100763.20
2018-08-24T21:24:03.187Z,100757.60
2018-08-24T21:26:33.792Z,100751.75
2018-08-24T21:29:04.543Z,100750.88
2018-08-24T21:31:36.898Z,100749.82
2018-08-24T21:34:10.402Z,100747.78
2018-08-24T21:36:40.915Z,100749.89
2018-08-24T21:39:12.687Z,100746.44
2018-08-24T21:41:44.610Z,100753.34
2018-08-24T21:44:17.397Z,100747.59
2018-08-24T21:46:47.475Z,100749.40
2018-08-24T21:49:19.541Z,100746.52
2018-08-24T21:51:50.415Z,100742.37
2018-08-24T21:54:23.815Z,100750.88
2018-08-24T21:57:13.754Z,100749.63
2018-08-24T22:02:51.429Z,100754.25
2018-08-24T22:05:22.479Z,100754.89
2018-08-24T22:07:55.071Z,100748.05
2018-08-24T22:10:25.731Z,100754.69
2018-08-24T22:12:58.214Z,100752.78
2018-08-24T22:15:31.507Z,100764.05
2018-08-24T22:18:01.805Z,100771.73
2018-08-24T22:20:33.346Z,100761.55
2018-08-24T22:23:05.176Z,100768.28
2018-08-24T22:25:35.378Z,100766.67
2018-08-24T22:28:05.803Z,100759.45
2018-08-24T22:30:38.194Z,100752.97
2018-08-24T22:33:08.514Z,100754.11
2018-08-24T22:35:40.148Z,100756.07
2018-08-24T22:38:12.902Z,100747.05
2018-08-24T22:40:43.277Z,100749.13
2018-08-24T22:43:20.608Z,100748.38
2018-08-24T22:45:53.148Z,100749.00
2018-08-24T22:49:50.510Z,100733.66
2018-08-24T22:52:22.248Z,100741.34
2018-08-24T22:54:54.339Z,100736.50
2018-08-24T22:57:24.774Z,100733.91
2018-08-24T22:59:55.897Z,100733.72
2018-08-24T23:02:26.113Z,100727.14
2018-08-24T23:04:58.007Z,100733.07
2018-08-24T23:07:29.701Z,100734.02
2018-08-24T23:12:41.056Z,100711.95
2018-08-24T23:15:12.501Z,100723.44
2018-08-24T23:17:42.672Z,100729.43
2018-08-24T23:20:14.325Z,100713.05
2018-08-24T23:22:44.780Z,100713.49
2018-08-24T23:25:15.896Z,100711.94
2018-08-24T23:27:48.632Z,100717.21
2018-08-24T23:30:19.138Z,100713.38
2018-08-24T23:32:51.581Z,100707.17
2018-08-24T23:35:23.580Z,100714.33
2018-08-24T23:37:55.399Z,100703.87
2018-08-24T23:40:26.384Z,100693.42
2018-08-24T23:42:58.821Z,100695.51
2018-08-24T23:45:29.509Z,100693.15
2018-08-24T23:48:01.420Z,100696.73
2018-08-24T23:50:33.666Z,100700.92
2018-08-24T23:53:06.099Z,100698.30
2018-08-24T23:55:36.819Z,100689.65
2018-08-24T23:58:11.454Z,100684.78
